Time;durP1;ratioP1;P1;durP2;ratioP2;P2;SDS_P1;SDS_P2;PMS_P1;PMS_P2;Temp;Humidity;BMP_temperature;BMP_pressure;BME280_temperature;BME280_humidity;BME280_pressure;Samples;Min_cycle;Max_cycle;Signal;HPM_P1;HPM_P2
2021/12/02 00:01:53;;;;;;;1.60;0.70;;;8.60;99.80;;;;;;10583228;28;20062;-69
2021/12/02 00:06:56;;;;;;;4.45;0.93;;;8.60;99.80;;;;;;10581491;28;20089;-69
2021/12/02 00:11:57;;;;;;;3.20;0.90;;;8.60;99.80;;;;;;10581007;28;20032;-70
2021/12/02 00:22:01;;;;;;;4.90;0.88;;;8.60;99.70;;;;;;10562790;28;20032;-70
2021/12/02 00:27:08;;;;;;;2.25;0.50;;;8.60;99.70;;;;;;10583023;28;20035;-69
2021/12/02 00:32:09;;;;;;;4.35;0.88;;;8.60;99.70;;;;;;10580322;28;20407;-69
2021/12/02 00:37:11;;;;;;;3.28;0.75;;;8.60;99.70;;;;;;10580084;28;20024;-70
2021/12/02 00:42:14;;;;;;;1.50;0.82;;;8.50;99.60;;;;;;10579985;28;20054;-70
2021/12/02 00:47:16;;;;;;;2.03;0.50;;;8.50;99.60;;;;;;10579615;28;20075;-70
2021/12/02 00:52:18;;;;;;;1.92;0.60;;;8.50;99.60;;;;;;10579270;28;20489;-68
2021/12/02 00:57:20;;;;;;;1.67;0.47;;;8.50;99.60;;;;;;10579449;28;20023;-70
2021/12/02 01:02:22;;;;;;;3.08;0.43;;;8.50;99.60;;;;;;10578410;28;20122;-69
2021/12/02 01:07:23;;;;;;;1.83;0.70;;;8.50;99.60;;;;;;10579208;28;20028;-70
2021/12/02 01:12:24;;;;;;;2.85;0.68;;;8.50;99.60;;;;;;10578526;28;20035;-70
2021/12/02 01:17:26;;;;;;;2.35;0.47;;;8.50;99.60;;;;;;10578279;28;20380;-70
2021/12/02 01:22:32;;;;;;;2.35;0.73;;;8.50;99.50;;;;;;10578932;28;20034;-70
2021/12/02 01:27:36;;;;;;;2.38;0.55;;;8.50;99.50;;;;;;10578886;28;20028;-70
2021/12/02 01:32:39;;;;;;;3.92;0.70;;;8.40;99.50;;;;;;10578313;28;20046;-70
2021/12/02 01:37:40;;;;;;;2.70;0.52;;;8.40;99.50;;;;;;10577936;28;20024;-68
2021/12/02 01:42:45;;;;;;;1.10;0.40;;;8.40;99.50;;;;;;10578043;28;20036;-70
2021/12/02 01:47:51;;;;;;;0.70;0.30;;;8.40;99.50;;;;;;10578155;28;20030;-70
2021/12/02 01:52:58;;;;;;;5.38;0.60;;;8.40;99.50;;;;;;10577128;28;20170;-70
2021/12/02 01:58:03;;;;;;;1.27;0.40;;;8.40;99.40;;;;;;10576956;28;20024;-69
2021/12/02 02:03:04;;;;;;;0.73;0.30;;;8.40;99.40;;;;;;10576703;28;20497;-69
2021/12/02 02:08:11;;;;;;;1.92;0.57;;;8.40;99.40;;;;;;10576564;28;20027;-69
2021/12/02 02:13:13;;;;;;;1.25;0.40;;;8.40;99.40;;;;;;10576666;28;20105;-69
2021/12/02 02:18:21;;;;;;;0.50;0.25;;;8.40;99.40;;;;;;10576303;28;20439;-70
2021/12/02 02:23:24;;;;;;;1.03;0.53;;;8.30;99.40;;;;;;10576637;28;20495;-69
2021/12/02 02:28:27;;;;;;;1.40;0.30;;;8.30;99.40;;;;;;10576402;28;20534;-69
2021/12/02 02:33:37;;;;;;;2.47;0.30;;;8.30;99.40;;;;;;10577517;28;20029;-69
2021/12/02 02:38:38;;;;;;;3.72;0.40;;;8.30;99.40;;;;;;10576528;28;20035;-70
2021/12/02 02:43:46;;;;;;;0.30;0.20;;;8.30;99.40;;;;;;10575962;28;20449;-70
2021/12/02 02:48:47;;;;;;;1.60;0.50;;;8.20;99.30;;;;;;10576149;28;20024;-69
2021/12/02 02:53:55;;;;;;;2.78;0.20;;;8.20;99.30;;;;;;10576052;28;20450;-69
2021/12/02 02:59:20;;;;;;;1.10;0.37;;;8.20;99.30;;;;;;10577753;28;20172;-70
2021/12/02 03:14:48;;;;;;;0.50;0.20;;;8.10;99.30;;;;;;10575621;28;20055;-69
2021/12/02 03:19:49;;;;;;;0.15;0.10;;;8.10;99.30;;;;;;10575946;28;20496;-69
2021/12/02 03:24:50;;;;;;;0.45;0.22;;;8.10;99.30;;;;;;10575298;28;20039;-69
2021/12/02 03:29:51;;;;;;;1.95;0.30;;;8.10;99.20;;;;;;10563737;28;20102;-69
2021/12/02 03:34:53;;;;;;;3.22;0.35;;;8.00;99.20;;;;;;10582522;28;20122;-69
2021/12/02 03:39:54;;;;;;;0.55;0.20;;;8.10;99.20;;;;;;10584097;28;20046;-70
2021/12/02 03:44:54;;;;;;;0.30;0.20;;;8.00;99.20;;;;;;10565127;28;20038;-70
2021/12/02 03:49:55;;;;;;;1.30;0.20;;;8.00;99.10;;;;;;10582211;28;20475;-70
2021/12/02 03:54:56;;;;;;;0.50;0.15;;;8.00;99.10;;;;;;10582389;28;20065;-69
2021/12/02 03:59:57;;;;;;;0.47;0.10;;;8.00;99.10;;;;;;10581520;28;20093;-69
2021/12/02 04:04:57;;;;;;;0.45;0.10;;;8.00;99.10;;;;;;10581441;28;20130;-69
2021/12/02 04:10:02;;;;;;;0.93;0.20;;;8.00;99.10;;;;;;10582809;28;20421;-69
2021/12/02 04:15:09;;;;;;;1.38;0.20;;;8.00;99.00;;;;;;10582342;28;20046;-69
2021/12/02 04:20:15;;;;;;;1.42;0.17;;;8.00;99.00;;;;;;10582973;28;20031;-69
2021/12/02 04:25:16;;;;;;;1.95;0.30;;;8.00;99.00;;;;;;10583406;28;20024;-70
2021/12/02 04:30:23;;;;;;;1.85;0.32;;;7.90;99.00;;;;;;10582280;28;20354;-67
2021/12/02 04:35:24;;;;;;;0.47;0.13;;;7.90;98.90;;;;;;10581697;28;20036;-66
2021/12/02 04:40:25;;;;;;;1.27;0.13;;;7.90;98.90;;;;;;10580017;28;20031;-69
2021/12/02 04:45:25;;;;;;;0.50;0.20;;;7.90;98.90;;;;;;10579707;28;20046;-68
2021/12/02 04:50:27;;;;;;;0.30;0.10;;;7.90;98.90;;;;;;10580204;28;20020;-70
2021/12/02 04:55:27;;;;;;;0.35;0.08;;;7.90;98.90;;;;;;10580351;28;20031;-70
2021/12/02 05:00:28;;;;;;;0.80;0.10;;;7.90;98.90;;;;;;10579568;28;20131;-70
2021/12/02 05:05:29;;;;;;;1.42;0.10;;;7.90;98.80;;;;;;10579097;28;20048;-70
2021/12/02 05:10:31;;;;;;;0.52;0.13;;;7.90;98.80;;;;;;10579386;28;20129;-71
2021/12/02 05:15:31;;;;;;;1.45;0.20;;;8.10;98.90;;;;;;10581047;28;20019;-70
2021/12/02 05:20:32;;;;;;;1.08;0.10;;;7.90;98.80;;;;;;10578749;28;20473;-69
2021/12/02 05:25:33;;;;;;;2.10;0.43;;;7.90;98.80;;;;;;10579192;28;20046;-69
2021/12/02 05:30:34;;;;;;;1.00;0.10;;;7.90;98.80;;;;;;10580841;28;20043;-70
2021/12/02 05:35:35;;;;;;;0.30;0.10;;;8.00;99.10;;;;;;10580041;28;20430;-69
2021/12/02 05:40:35;;;;;;;0.22;0.10;;;7.90;98.80;;;;;;10579150;28;20035;-70
2021/12/02 05:45:36;;;;;;;0.43;0.30;;;7.80;98.80;;;;;;10577472;28;20067;-69
2021/12/02 05:50:37;;;;;;;1.17;0.17;;;7.80;98.80;;;;;;10558880;28;20384;-69
2021/12/02 05:55:38;;;;;;;2.15;0.15;;;7.90;98.80;;;;;;10577813;28;20023;-70
2021/12/02 06:00:39;;;;;;;0.32;0.15;;;7.80;98.80;;;;;;10577196;28;20027;-70
2021/12/02 06:05:40;;;;;;;1.52;0.30;;;7.80;98.70;;;;;;10577978;28;20046;-69
2021/12/02 06:10:41;;;;;;;1.60;0.20;;;7.80;98.70;;;;;;10578697;28;20035;-68
2021/12/02 06:15:42;;;;;;;0.70;0.30;;;7.80;98.70;;;;;;10579251;28;20065;-70
2021/12/02 06:20:43;;;;;;;0.28;0.20;;;7.80;98.70;;;;;;10578394;28;20080;-70
2021/12/02 06:25:44;;;;;;;1.10;0.20;;;7.80;98.70;;;;;;10577420;28;20036;-66
2021/12/02 06:30:45;;;;;;;0.35;0.28;;;7.70;98.70;;;;;;10577943;28;20024;-69
2021/12/02 06:35:46;;;;;;;1.75;0.28;;;7.70;98.60;;;;;;10578485;28;20076;-70
2021/12/02 06:40:47;;;;;;;0.73;0.20;;;7.70;98.60;;;;;;10578204;28;20507;-70
2021/12/02 06:45:48;;;;;;;0.77;0.20;;;7.70;98.60;;;;;;10577223;28;20351;-69
2021/12/02 06:50:48;;;;;;;0.40;0.20;;;7.70;98.60;;;;;;10577226;28;20530;-68
2021/12/02 06:55:49;;;;;;;0.38;0.20;;;7.70;98.60;;;;;;10577794;28;20399;-69
2021/12/02 07:00:50;;;;;;;0.50;0.15;;;7.70;98.60;;;;;;10578185;28;20028;-70
2021/12/02 07:05:51;;;;;;;0.85;0.30;;;7.60;98.60;;;;;;10584465;28;20074;-68
2021/12/02 07:10:51;;;;;;;0.20;0.10;;;7.60;98.60;;;;;;10565322;28;20457;-70
2021/12/02 07:15:54;;;;;;;1.02;0.30;;;7.60;98.60;;;;;;10583183;28;20127;-69
2021/12/02 07:20:54;;;;;;;0.60;0.20;;;7.60;98.60;;;;;;10583545;28;20091;-68
2021/12/02 07:25:59;;;;;;;0.65;0.30;;;7.60;98.60;;;;;;10583227;28;20456;-70
2021/12/02 07:31:02;;;;;;;0.90;0.20;;;7.60;98.60;;;;;;10582915;28;20026;-68
2021/12/02 07:36:04;;;;;;;0.75;0.20;;;7.60;98.50;;;;;;10583177;28;20042;-69
2021/12/02 07:41:05;;;;;;;0.75;0.30;;;7.60;98.50;;;;;;10582434;28;20031;-66
2021/12/02 07:46:07;;;;;;;0.20;0.10;;;7.60;98.50;;;;;;10581847;28;20128;-69
2021/12/02 07:51:11;;;;;;;0.70;0.30;;;7.60;98.50;;;;;;10582440;28;20016;-70
2021/12/02 07:56:15;;;;;;;0.45;0.35;;;7.60;98.50;;;;;;10582741;28;20024;-70
2021/12/02 08:01:17;;;;;;;1.25;0.20;;;7.60;98.40;;;;;;10562518;28;20480;-68
2021/12/02 08:06:18;;;;;;;0.70;0.43;;;7.60;98.40;;;;;;10581242;28;20048;-69
2021/12/02 08:11:18;;;;;;;1.17;0.30;;;7.60;98.40;;;;;;10581269;28;20408;-69
2021/12/02 08:16:19;;;;;;;0.65;0.30;;;7.60;98.40;;;;;;10581313;28;20023;-66
2021/12/02 08:21:20;;;;;;;0.52;0.32;;;7.60;98.30;;;;;;10564737;28;20027;-67
2021/12/02 08:26:20;;;;;;;0.20;0.20;;;7.60;98.30;;;;;;10579851;28;20032;-68
2021/12/02 08:31:21;;;;;;;0.50;0.20;;;7.60;98.30;;;;;;10580099;28;20027;-68
2021/12/02 08:36:25;;;;;;;0.60;0.30;;;7.60;98.30;;;;;;10579829;28;20166;-67
2021/12/02 08:41:26;;;;;;;0.40;0.30;;;7.60;98.30;;;;;;10580119;28;20027;-65
2021/12/02 08:46:27;;;;;;;0.68;0.35;;;7.60;98.30;;;;;;10580421;28;20473;-67
2021/12/02 08:51:28;;;;;;;0.93;0.40;;;7.60;98.30;;;;;;10580032;28;20389;-70
2021/12/02 08:56:29;;;;;;;0.40;0.30;;;7.60;98.20;;;;;;10579450;28;20062;-66
2021/12/02 09:01:29;;;;;;;0.20;0.20;;;7.60;98.20;;;;;;10580878;28;20023;-66
2021/12/02 09:06:30;;;;;;;0.40;0.20;;;7.60;98.20;;;;;;10578796;28;20035;-66
2021/12/02 09:11:33;;;;;;;0.55;0.30;;;7.60;98.20;;;;;;10579632;28;20057;-67
2021/12/02 09:16:36;;;;;;;0.40;0.28;;;7.60;98.20;;;;;;10581090;28;20106;-66
2021/12/02 09:21:37;;;;;;;4.75;1.33;;;7.70;98.20;;;;;;10578120;28;20509;-68
2021/12/02 09:26:38;;;;;;;0.35;0.30;;;7.70;98.20;;;;;;10577151;28;20035;-67
2021/12/02 09:31:39;;;;;;;0.77;0.40;;;7.70;98.10;;;;;;10577829;28;20028;-65
2021/12/02 09:36:41;;;;;;;1.45;0.40;;;7.90;98.10;;;;;;10578926;28;20110;-65
2021/12/02 09:41:44;;;;;;;0.45;0.30;;;7.80;98.00;;;;;;10579302;28;20027;-65
2021/12/02 09:46:44;;;;;;;0.88;0.35;;;7.80;97.90;;;;;;10576590;28;20374;-67
2021/12/02 09:56:55;;;;;;;0.40;0.20;;;7.90;97.90;;;;;;10577206;28;20647;-68
2021/12/02 10:02:01;;;;;;;0.50;0.25;;;8.00;97.80;;;;;;10576888;28;20059;-68
2021/12/02 10:07:18;;;;;;;0.75;0.40;;;8.00;97.90;;;;;;10559442;28;20485;-65
2021/12/02 10:12:22;;;;;;;0.50;0.35;;;8.00;97.80;;;;;;10577131;28;20023;-65
2021/12/02 10:22:31;;;;;;;0.30;0.30;;;8.00;97.80;;;;;;10575950;28;20024;-68
2021/12/02 10:27:32;;;;;;;1.48;0.30;;;8.00;97.80;;;;;;10578722;28;20474;-67
2021/12/02 10:32:34;;;;;;;0.93;0.40;;;8.00;97.90;;;;;;10577308;28;20134;-63
2021/12/02 10:37:39;;;;;;;1.73;0.30;;;8.00;97.90;;;;;;10581671;28;20031;-63
2021/12/02 10:42:43;;;;;;;0.85;0.40;;;8.10;97.90;;;;;;10586025;28;20039;-64
2021/12/02 10:47:49;;;;;;;1.80;0.30;;;8.10;97.80;;;;;;10567304;28;20066;-66
2021/12/02 10:52:51;;;;;;;3.67;0.50;;;8.20;97.80;;;;;;10586021;28;20469;-70
2021/12/02 10:57:54;;;;;;;0.57;0.38;;;8.30;97.80;;;;;;10583821;28;20024;-66
2021/12/02 11:02:57;;;;;;;0.45;0.30;;;8.50;97.80;;;;;;10584749;28;20039;-75
2021/12/02 11:08:08;;;;;;;1.95;0.35;;;8.60;97.70;;;;;;10583787;28;20470;-63
2021/12/02 11:13:11;;;;;;;1.15;0.30;;;8.70;97.60;;;;;;10566568;28;20087;-65
2021/12/02 11:18:15;;;;;;;0.55;0.30;;;8.80;97.60;;;;;;10583115;28;20430;-62
2021/12/02 11:23:28;;;;;;;0.60;0.30;;;8.90;97.50;;;;;;10584336;28;20043;-65
2021/12/02 11:28:31;;;;;;;3.30;0.38;;;8.80;97.60;;;;;;10583336;28;20385;-65
2021/12/02 11:33:38;;;;;;;1.73;0.22;;;8.80;97.70;;;;;;10585128;28;20027;-63
2021/12/02 11:44:35;;;;;;;0.40;0.20;;;8.50;97.90;;;;;;10583544;28;20434;-63
2021/12/02 11:49:36;;;;;;;0.38;0.30;;;8.50;98.10;;;;;;10582948;28;20079;-63
2021/12/02 11:54:37;;;;;;;0.98;0.40;;;8.40;98.20;;;;;;10584216;28;20127;-66
2021/12/02 11:59:38;;;;;;;1.70;0.30;;;8.30;98.20;;;;;;10581521;28;20032;-65
2021/12/02 12:04:39;;;;;;;0.60;0.20;;;8.30;98.30;;;;;;10580792;28;20531;-63
2021/12/02 12:09:40;;;;;;;1.33;0.35;;;8.20;98.30;;;;;;10581212;28;20408;-66
2021/12/02 12:14:42;;;;;;;0.43;0.30;;;8.30;98.30;;;;;;10580736;28;20442;-64
2021/12/02 12:19:46;;;;;;;1.10;0.38;;;8.30;98.20;;;;;;10581013;28;20016;-64
2021/12/02 12:24:55;;;;;;;0.88;0.20;;;8.30;98.20;;;;;;10580780;28;20163;-66
2021/12/02 12:30:19;;;;;;;0.30;0.20;;;8.20;98.10;;;;;;10580447;28;20062;-62
2021/12/02 12:41:00;;;;;;;0.65;0.30;;;8.20;98.30;;;;;;10580389;28;20020;-65
2021/12/02 12:46:19;;;;;;;0.50;0.25;;;8.30;98.30;;;;;;10580007;28;20039;-67
2021/12/02 12:51:26;;;;;;;1.65;0.10;;;8.20;98.20;;;;;;10581118;28;20385;-67
2021/12/02 12:56:40;;;;;;;0.20;0.10;;;7.40;97.40;;;;;;10581433;28;20022;-66
2021/12/02 13:02:00;;;;;;;2.15;0.22;;;6.30;98.00;;;;;;10582240;28;20016;-64
2021/12/02 13:07:16;;;;;;;0.30;0.10;;;6.30;99.00;;;;;;10580493;28;20135;-69
2021/12/02 13:12:19;;;;;;;1.50;0.20;;;6.60;98.80;;;;;;10580832;28;20035;-65
2021/12/02 13:17:50;;;;;;;1.77;0.25;;;7.10;98.60;;;;;;10582308;28;20024;-68
2021/12/02 13:23:17;;;;;;;0.40;0.10;;;7.10;98.20;;;;;;10578383;28;20059;-66
2021/12/02 13:28:19;;;;;;;0.85;0.55;;;7.20;98.00;;;;;;10566753;28;20513;-66
2021/12/02 13:33:31;;;;;;;0.20;0.10;;;7.30;98.20;;;;;;10580198;28;20039;-63
2021/12/02 13:38:32;;;;;;;0.30;0.10;;;7.40;97.90;;;;;;10578105;28;20035;-64
2021/12/02 13:43:33;;;;;;;0.28;0.10;;;7.50;97.80;;;;;;10577449;28;20040;-64
2021/12/02 13:48:33;;;;;;;0.73;0.20;;;7.50;97.80;;;;;;10578477;28;20016;-62
2021/12/02 13:53:34;;;;;;;0.85;0.15;;;7.60;97.80;;;;;;10577240;28;20466;-66
2021/12/02 13:58:35;;;;;;;1.10;0.30;;;7.60;97.80;;;;;;10577089;28;20022;-66
2021/12/02 14:03:35;;;;;;;0.63;0.20;;;7.70;97.80;;;;;;10560256;28;20123;-62
2021/12/02 14:08:38;;;;;;;0.63;0.20;;;7.80;97.70;;;;;;10576071;28;20043;-63
2021/12/02 14:13:38;;;;;;;0.68;0.30;;;7.90;97.70;;;;;;10576504;28;20504;-65
2021/12/02 14:18:39;;;;;;;2.85;0.30;;;7.80;97.70;;;;;;10576707;28;20027;-67
2021/12/02 14:23:43;;;;;;;1.65;0.30;;;7.60;97.60;;;;;;10576995;28;20044;-62
2021/12/02 14:28:44;;;;;;;2.03;1.20;;;7.60;98.00;;;;;;10576813;28;20026;-65
2021/12/02 14:33:46;;;;;;;0.43;0.28;;;7.70;97.90;;;;;;10578734;28;20032;-66
2021/12/02 14:43:56;;;;;;;0.80;0.20;;;7.70;98.00;;;;;;10480335;28;20049;-73
2021/12/02 14:49:11;;;;;;;0.40;0.25;;;7.70;97.90;;;;;;10482048;28;20687;-71
2021/12/02 14:54:13;;;;;;;1.08;0.35;;;7.60;97.90;;;;;;10480469;28;20114;-71
2021/12/02 14:59:20;;;;;;;0.30;0.20;;;7.60;98.00;;;;;;10480155;28;20025;-70
2021/12/02 15:04:22;;;;;;;0.47;0.30;;;7.60;98.00;;;;;;10481313;28;20036;-65
2021/12/02 15:09:38;;;;;;;1.75;0.30;;;7.60;98.00;;;;;;10479980;28;20454;-65
2021/12/02 15:14:44;;;;;;;0.35;0.30;;;7.60;97.90;;;;;;10477884;28;20028;-67
2021/12/02 15:19:49;;;;;;;0.85;0.57;;;7.50;97.90;;;;;;10481059;28;20024;-67
2021/12/02 15:24:50;;;;;;;0.40;0.40;;;7.50;98.00;;;;;;10486066;28;20024;-70
2021/12/02 15:29:52;;;;;;;1.30;0.90;;;7.50;98.00;;;;;;10487985;28;20386;-72
2021/12/02 15:34:54;;;;;;;2.33;1.48;;;7.50;98.00;;;;;;10489312;28;20047;-71
2021/12/02 15:39:55;;;;;;;1.77;1.23;;;7.60;98.00;;;;;;10486567;28;20549;-68
2021/12/02 15:44:57;;;;;;;1.70;1.20;;;7.50;98.10;;;;;;10457435;28;20144;-66
2021/12/02 15:50:03;;;;;;;3.95;1.33;;;7.40;98.10;;;;;;10460694;28;20101;-68
2021/12/02 15:55:05;;;;;;;3.03;1.50;;;7.30;98.00;;;;;;10462248;28;20119;-70
2021/12/02 16:00:15;;;;;;;3.17;1.58;;;7.30;98.10;;;;;;10458730;28;20037;-66
2021/12/02 16:05:28;;;;;;;3.38;1.65;;;7.30;98.10;;;;;;10475455;28;20050;-65
2021/12/02 16:10:53;;;;;;;2.22;1.40;;;7.30;98.10;;;;;;10466596;28;20454;-69
2021/12/02 16:15:54;;;;;;;2.10;1.38;;;7.30;98.10;;;;;;10474750;28;20517;-70
2021/12/02 16:20:58;;;;;;;2.63;1.27;;;7.30;98.10;;;;;;10487393;28;21523;-70
2021/12/02 16:25:59;;;;;;;1.42;1.30;;;7.20;98.10;;;;;;10487846;28;20068;-72
2021/12/02 16:31:00;;;;;;;3.00;1.52;;;7.20;98.10;;;;;;10469533;28;20456;-69
2021/12/02 16:36:03;;;;;;;2.72;1.20;;;7.20;98.10;;;;;;10486849;28;20078;-70
2021/12/02 16:41:03;;;;;;;2.97;1.40;;;8.10;98.30;;;;;;10486468;28;20044;-72
2021/12/02 16:46:07;;;;;;;3.72;1.70;;;7.20;98.10;;;;;;10461633;28;20045;-67
2021/12/02 16:51:08;;;;;;;3.17;1.52;;;7.20;98.10;;;;;;10480828;28;20029;-72
2021/12/02 16:56:09;;;;;;;4.03;1.70;;;7.20;98.00;;;;;;10472956;28;20051;-70
2021/12/02 17:01:10;;;;;;;4.65;1.70;;;7.20;98.00;;;;;;10482578;28;20536;-80
2021/12/02 17:06:11;;;;;;;3.30;1.35;;;7.20;98.00;;;;;;10486169;28;20131;-68
2021/12/02 17:11:12;;;;;;;2.05;1.40;;;7.20;98.00;;;;;;10486207;28;20450;-68
2021/12/02 17:16:17;;;;;;;3.13;1.50;;;7.20;97.90;;;;;;10486193;28;20478;-68
2021/12/02 17:21:17;;;;;;;4.60;1.70;;;7.20;98.00;;;;;;10486517;28;20029;-71
2021/12/02 17:26:19;;;;;;;4.53;1.70;;;7.20;97.80;;;;;;10479258;28;20028;-70
2021/12/02 17:31:20;;;;;;;4.80;1.35;;;7.30;97.80;;;;;;10475330;28;20116;-67
2021/12/02 17:36:21;;;;;;;2.88;1.65;;;7.00;97.80;;;;;;10485400;28;20033;-69
2021/12/02 17:41:22;;;;;;;1.60;1.25;;;7.00;97.80;;;;;;10484926;28;20040;-70
2021/12/02 17:46:24;;;;;;;2.60;1.55;;;7.00;97.80;;;;;;10488335;28;20274;-77
2021/12/02 17:51:26;;;;;;;4.22;1.60;;;7.00;97.80;;;;;;10472347;28;20032;-68
2021/12/02 17:56:27;;;;;;;3.65;1.95;;;7.00;97.70;;;;;;10486634;28;20055;-72
2021/12/02 18:01:28;;;;;;;5.25;2.70;;;7.00;97.70;;;;;;10468342;28;20100;-71
2021/12/02 18:06:29;;;;;;;5.55;2.63;;;7.00;97.80;;;;;;10484754;28;20082;-75
2021/12/02 18:11:31;;;;;;;4.95;2.50;;;7.10;97.70;;;;;;10457932;28;20041;-78
2021/12/02 18:16:32;;;;;;;5.65;2.65;;;7.00;97.60;;;;;;10454822;28;20032;-73
2021/12/02 18:21:35;;;;;;;7.53;2.95;;;7.00;97.60;;;;;;10492142;28;20386;-74
2021/12/02 18:26:36;;;;;;;5.05;2.80;;;7.00;97.60;;;;;;10484925;28;20111;-79
2021/12/02 18:31:37;;;;;;;4.53;2.45;;;6.90;97.60;;;;;;10484113;28;20051;-79
2021/12/02 18:36:38;;;;;;;5.70;2.63;;;6.90;97.60;;;;;;10484754;28;20067;-75
2021/12/02 18:41:40;;;;;;;4.18;2.78;;;7.00;97.60;;;;;;10479778;28;20074;-71
2021/12/02 18:46:40;;;;;;;5.47;3.00;;;6.90;97.50;;;;;;10427995;28;20407;-65
2021/12/02 18:51:44;;;;;;;4.93;2.80;;;6.90;97.50;;;;;;10448081;28;20104;-70
2021/12/02 18:56:45;;;;;;;5.55;2.92;;;7.90;97.70;;;;;;10441480;28;20049;-71
2021/12/02 19:01:46;;;;;;;4.68;2.97;;;6.90;97.50;;;;;;10446110;28;20057;-75
2021/12/02 19:06:51;;;;;;;4.38;2.75;;;6.90;97.50;;;;;;10453016;28;20073;-72
2021/12/02 19:27:51;;;;;;;;;;;6.80;97.40;;;;;;10448144;28;20044;-68
2021/12/02 19:32:54;;;;;;;7.30;3.70;;;6.90;96.90;;;;;;10420592;28;19905;-70
2021/12/02 19:37:57;;;;;;;6.47;3.33;;;6.80;97.30;;;;;;10432889;28;20475;-69
2021/12/02 19:42:59;;;;;;;4.90;3.22;;;6.80;97.30;;;;;;10453040;28;20128;-71
2021/12/02 19:48:00;;;;;;;6.38;3.90;;;6.80;97.30;;;;;;10488839;28;20105;-75
2021/12/02 19:53:01;;;;;;;6.05;3.50;;;6.70;97.20;;;;;;10483066;28;20451;-73
2021/12/02 19:58:02;;;;;;;6.82;3.67;;;6.70;97.20;;;;;;10462574;28;20120;-74
2021/12/02 20:03:03;;;;;;;6.45;3.22;;;6.70;97.20;;;;;;10454758;28;20379;-72
2021/12/02 20:08:04;;;;;;;5.47;3.35;;;6.80;97.20;;;;;;10460523;28;20399;-72
2021/12/02 20:13:05;;;;;;;5.72;3.00;;;6.70;97.20;;;;;;10462221;28;20043;-72
2021/12/02 20:18:08;;;;;;;7.30;3.47;;;6.70;97.20;;;;;;10453013;28;20035;-76
2021/12/02 20:23:10;;;;;;;5.88;3.35;;;6.70;97.20;;;;;;10460317;28;20209;-74
2021/12/02 20:28:12;;;;;;;5.43;2.75;;;6.70;97.20;;;;;;10456310;28;20028;-73
2021/12/02 20:33:12;;;;;;;7.55;3.00;;;6.70;97.20;;;;;;10458337;28;20036;-68
2021/12/02 20:38:13;;;;;;;5.35;2.60;;;6.70;97.20;;;;;;10454229;28;20726;-66
2021/12/02 20:43:19;;;;;;;4.00;2.22;;;6.60;97.10;;;;;;10454573;28;20487;-71
2021/12/02 20:48:30;;;;;;;4.57;2.33;;;6.60;97.10;;;;;;10477971;28;20036;-64
2021/12/02 20:53:34;;;;;;;5.35;2.00;;;6.60;97.10;;;;;;10471933;28;20074;-69
2021/12/02 20:58:36;;;;;;;3.30;1.83;;;6.60;97.10;;;;;;10472719;28;20433;-67
2021/12/02 21:03:39;;;;;;;5.03;1.73;;;6.60;97.00;;;;;;10494275;28;20514;-66
2021/12/02 21:08:40;;;;;;;3.63;1.70;;;6.60;97.00;;;;;;10501587;28;20486;-68
2021/12/02 21:13:47;;;;;;;2.60;1.83;;;6.50;97.00;;;;;;10498758;28;20047;-66
2021/12/02 21:18:48;;;;;;;1.60;1.30;;;6.50;97.00;;;;;;10488619;28;20025;-67
2021/12/02 21:23:51;;;;;;;3.20;1.52;;;6.50;96.90;;;;;;10485834;28;20048;-64
2021/12/02 21:28:52;;;;;;;2.13;1.35;;;6.50;96.90;;;;;;10482755;28;20502;-65
2021/12/02 21:33:53;;;;;;;4.18;1.38;;;6.50;96.90;;;;;;10457948;28;20093;-71
2021/12/02 21:39:03;;;;;;;2.40;1.33;;;6.50;96.90;;;;;;10457397;28;20391;-72
2021/12/02 21:44:06;;;;;;;2.20;1.23;;;6.50;96.90;;;;;;10450589;28;20044;-70
2021/12/02 21:49:07;;;;;;;2.50;1.10;;;6.50;96.90;;;;;;10475702;28;20037;-69
2021/12/02 21:54:12;;;;;;;1.63;1.05;;;6.40;96.80;;;;;;10485669;28;20482;-71
2021/12/02 21:59:14;;;;;;;2.70;1.10;;;6.40;96.80;;;;;;10469932;28;20529;-73
2021/12/02 22:04:18;;;;;;;1.90;0.90;;;6.40;97.00;;;;;;10472509;28;20029;-70
2021/12/02 22:09:19;;;;;;;3.30;1.30;;;6.40;96.80;;;;;;10468312;28;20082;-72
2021/12/02 22:14:24;;;;;;;1.80;1.02;;;6.40;96.80;;;;;;10476250;28;20506;-74
2021/12/02 22:19:25;;;;;;;4.53;1.30;;;6.40;96.80;;;;;;10454235;28;20053;-67
2021/12/02 22:24:26;;;;;;;2.83;1.67;;;6.40;97.00;;;;;;10453770;28;20064;-73
2021/12/02 22:29:27;;;;;;;1.90;1.10;;;6.40;96.70;;;;;;10448582;28;20360;-71
2021/12/02 22:34:30;;;;;;;2.30;1.30;;;6.30;96.70;;;;;;10461144;28;20474;-68
2021/12/02 22:39:30;;;;;;;4.30;1.60;;;6.30;96.70;;;;;;10465466;28;20024;-68
2021/12/02 22:44:31;;;;;;;4.45;1.48;;;6.60;96.80;;;;;;10459918;28;20041;-69
2021/12/02 22:49:32;;;;;;;2.75;1.20;;;6.30;96.70;;;;;;10465264;28;20021;-73
2021/12/02 22:54:35;;;;;;;1.85;1.02;;;6.30;96.70;;;;;;10463029;28;20068;-70
2021/12/02 22:59:36;;;;;;;4.97;1.50;;;6.30;96.70;;;;;;10467125;28;20028;-70
2021/12/02 23:04:37;;;;;;;1.73;1.10;;;6.20;96.60;;;;;;10463937;28;20118;-68
2021/12/02 23:09:38;;;;;;;2.05;1.23;;;6.20;96.60;;;;;;10463115;28;20086;-69
2021/12/02 23:14:39;;;;;;;2.08;1.08;;;6.20;96.60;;;;;;10466678;28;20029;-69
2021/12/02 23:19:39;;;;;;;1.52;1.08;;;6.20;96.60;;;;;;10471651;28;20048;-71
2021/12/02 23:24:42;;;;;;;3.63;1.13;;;6.20;96.60;;;;;;10458038;28;20048;-69
2021/12/02 23:29:43;;;;;;;2.90;1.40;;;6.20;96.60;;;;;;10470616;28;20522;-67
2021/12/02 23:34:44;;;;;;;3.25;1.95;;;6.20;96.80;;;;;;10490277;28;20487;-72
2021/12/02 23:39:45;;;;;;;4.13;1.30;;;6.20;96.60;;;;;;10469707;28;20097;-71
2021/12/02 23:44:46;;;;;;;2.72;1.25;;;6.20;96.50;;;;;;10496529;28;20071;-66
2021/12/02 23:49:47;;;;;;;2.53;1.35;;;6.20;96.60;;;;;;10495134;28;20033;-69
2021/12/02 23:54:47;;;;;;;2.08;1.27;;;6.10;96.50;;;;;;10494131;28;20028;-67
2021/12/02 23:59:48;;;;;;;2.45;1.17;;;6.20;96.50;;;;;;10490923;28;20016;-68
